createdAt,value
2024-04-11T00:00:26.549Z,5.28
2024-04-11T00:02:53.362Z,5.30
2024-04-11T00:05:21.558Z,4.20
2024-04-11T00:07:48.441Z,10.07
2024-04-11T00:10:15.193Z,5.88
2024-04-11T00:12:44.133Z,9.90
2024-04-11T00:15:11.232Z,6.53
2024-04-11T00:17:37.949Z,7.45
2024-04-11T00:20:05.149Z,4.50
2024-04-11T00:24:58.774Z,5.18
2024-04-11T00:27:25.346Z,4.93
2024-04-11T00:29:52.328Z,3.92
2024-04-11T00:32:19.064Z,7.28
2024-04-11T00:34:45.714Z,4.75
2024-04-11T00:37:16.620Z,6.43
2024-04-11T00:39:43.193Z,5.18
2024-04-11T00:42:09.847Z,4.93
2024-04-11T00:44:38.778Z,4.32
2024-04-11T00:47:10.444Z,6.07
2024-04-11T00:49:41.825Z,5.50
2024-04-11T00:52:11.479Z,5.63
2024-04-11T00:54:38.223Z,6.38
2024-04-11T00:57:09.273Z,5.22
2024-04-11T00:59:38.427Z,3.70
2024-04-11T01:02:05.943Z,6.22
2024-04-11T01:04:36.874Z,5.72
2024-04-11T01:07:11.737Z,4.57
2024-04-11T01:09:45.785Z,4.30
2024-04-11T01:12:18.160Z,4.20
2024-04-11T01:14:47.500Z,4.72
2024-04-11T01:17:19.352Z,6.50
2024-04-11T01:19:50.188Z,5.78
2024-04-11T01:22:20.360Z,6.32
2024-04-11T01:24:48.145Z,6.15
2024-04-11T01:27:18.183Z,7.45
2024-04-11T01:29:44.964Z,10.43
2024-04-11T01:32:11.706Z,5.28
2024-04-11T01:34:41.137Z,6.88
2024-04-11T01:37:09.986Z,4.60
2024-04-11T01:39:38.354Z,5.00
2024-04-11T01:42:05.697Z,6.68
2024-04-11T01:44:32.460Z,5.82
2024-04-11T01:47:01.620Z,4.85
2024-04-11T01:49:32.021Z,6.50
2024-04-11T01:52:11.262Z,4.30
2024-04-11T01:54:38.661Z,7.38
2024-04-11T01:59:34.653Z,4.85
2024-04-11T02:02:09.262Z,4.90
2024-04-11T02:04:36.042Z,4.97
2024-04-11T02:07:06.008Z,5.82
2024-04-11T02:09:36.056Z,6.60
2024-04-11T02:12:02.735Z,7.75
2024-04-11T02:14:30.839Z,7.45
2024-04-11T02:17:00.695Z,6.40
2024-04-11T02:19:27.701Z,7.03
2024-04-11T02:21:56.499Z,7.63
2024-04-11T02:24:28.295Z,7.78
2024-04-11T02:26:54.866Z,6.70
2024-04-11T02:29:21.671Z,5.20
2024-04-11T02:31:48.217Z,8.05
2024-04-11T02:34:15.069Z,7.60
2024-04-11T02:36:44.618Z,5.43
2024-04-11T02:39:14.268Z,5.72
2024-04-11T02:41:41.573Z,8.25
2024-04-11T02:46:36.293Z,6.15
2024-04-11T02:49:06.524Z,6.57
2024-04-11T02:51:37.253Z,5.80
2024-04-11T02:54:08.405Z,6.22
2024-04-11T02:56:35.205Z,7.13
2024-04-11T02:59:01.943Z,9.60
2024-04-11T03:01:29.398Z,8.07
2024-04-11T03:03:59.994Z,6.07
2024-04-11T03:06:32.547Z,5.85
2024-04-11T03:08:59.751Z,6.13
2024-04-11T03:13:57.535Z,7.25
2024-04-11T03:16:31.444Z,7.75
2024-04-11T03:18:58.602Z,8.30
2024-04-11T03:21:27.318Z,6.55
2024-04-11T03:23:54.162Z,6.78
2024-04-11T03:26:20.935Z,6.93
2024-04-11T03:28:47.585Z,5.53
2024-04-11T03:31:20.012Z,9.30
2024-04-11T03:33:49.470Z,6.70
2024-04-11T03:36:16.304Z,6.35
2024-04-11T03:38:43.152Z,6.35
2024-04-11T03:41:13.148Z,6.68
2024-04-11T03:43:43.633Z,7.28
2024-04-11T03:46:25.548Z,6.95
2024-04-11T03:48:57.486Z,9.25
2024-04-11T03:51:34.696Z,12.15
2024-04-11T03:54:02.354Z,9.98
2024-04-11T03:56:29.529Z,9.02
2024-04-11T03:59:00.461Z,8.95
2024-04-11T04:01:28.729Z,10.13
2024-04-11T04:04:06.120Z,7.95
2024-04-11T04:06:35.299Z,7.97
2024-04-11T04:09:10.244Z,6.80
2024-04-11T04:11:37.851Z,8.70
2024-04-11T04:14:04.751Z,7.05
2024-04-11T04:16:31.408Z,8.57
2024-04-11T04:18:58.735Z,7.85
2024-04-11T04:23:57.277Z,7.70
2024-04-11T04:26:31.749Z,6.10
2024-04-11T04:29:01.855Z,8.65
2024-04-11T04:31:32.277Z,10.40
2024-04-11T04:34:03.564Z,6.70
2024-04-11T04:36:47.651Z,6.95
2024-04-11T04:39:18.168Z,10.68
2024-04-11T04:41:49.445Z,8.30
2024-04-11T04:44:16.216Z,8.52
2024-04-11T04:46:44.846Z,7.93
2024-04-11T04:49:12.353Z,11.13
2024-04-11T04:51:43.432Z,11.05
2024-04-11T04:54:12.554Z,12.18
2024-04-11T04:56:43.442Z,8.50
2024-04-11T04:59:10.654Z,6.45
2024-04-11T05:01:38.016Z,10.98
2024-04-11T05:04:07.663Z,8.57
2024-04-11T05:06:34.404Z,11.23
2024-04-11T05:09:01.007Z,10.18
2024-04-11T05:11:33.337Z,12.43
2024-04-11T05:14:00.353Z,11.00
2024-04-11T05:16:29.807Z,8.00
2024-04-11T05:18:56.539Z,11.90
2024-04-11T05:21:27.622Z,12.80
2024-04-11T05:23:55.777Z,7.40
2024-04-11T05:26:25.252Z,10.48
2024-04-11T05:28:53.679Z,8.77
2024-04-11T05:31:27.146Z,7.88
2024-04-11T05:33:56.017Z,8.40
2024-04-11T05:36:27.000Z,10.85
2024-04-11T05:38:53.860Z,7.55
2024-04-11T05:41:21.182Z,11.82
2024-04-11T05:43:53.291Z,11.75
2024-04-11T05:46:20.912Z,8.52
2024-04-11T05:48:52.868Z,8.48
2024-04-11T05:51:22.876Z,7.60
2024-04-11T05:53:50.095Z,9.55
2024-04-11T05:58:44.774Z,9.80
2024-04-11T06:01:17.540Z,10.18
2024-04-11T06:06:22.070Z,7.38
2024-04-11T06:08:49.697Z,9.18
2024-04-11T06:11:19.527Z,9.45
2024-04-11T06:13:53.724Z,11.13
2024-04-11T06:16:26.258Z,6.93
2024-04-11T06:18:55.740Z,10.40
2024-04-11T06:21:33.236Z,8.00
2024-04-11T06:24:03.283Z,6.70
2024-04-11T06:26:32.274Z,6.60
2024-04-11T06:28:58.829Z,7.15
2024-04-11T06:31:29.841Z,10.23
2024-04-11T06:33:57.686Z,8.35
2024-04-11T06:36:25.519Z,9.75
2024-04-11T06:38:52.664Z,6.05
2024-04-11T06:43:51.845Z,8.30
2024-04-11T06:46:19.602Z,6.03
2024-04-11T06:48:48.743Z,5.68
2024-04-11T06:51:20.953Z,4.53
2024-04-11T06:53:48.119Z,4.65
2024-04-11T06:56:19.002Z,7.03
2024-04-11T06:58:46.883Z,6.57
2024-04-11T07:01:17.005Z,7.38
2024-04-11T07:03:44.578Z,6.55
2024-04-11T07:06:22.992Z,7.18
2024-04-11T07:08:50.944Z,5.65
2024-04-11T07:11:21.667Z,7.60
2024-04-11T07:13:55.033Z,5.72
2024-04-11T07:16:27.336Z,6.75
2024-04-11T07:18:57.026Z,6.13
2024-04-11T07:21:26.912Z,6.75
2024-04-11T07:23:56.548Z,8.02
2024-04-11T07:26:24.470Z,6.80
2024-04-11T07:28:52.532Z,6.40
2024-04-11T07:33:49.716Z,4.45
2024-04-11T07:36:23.814Z,6.15
2024-04-11T07:38:51.413Z,6.03
2024-04-11T07:41:21.709Z,4.25
2024-04-11T07:43:52.869Z,6.20
2024-04-11T07:46:21.003Z,3.80
2024-04-11T07:48:48.820Z,4.20
2024-04-11T07:51:22.083Z,5.15
2024-04-11T07:53:49.742Z,4.47
2024-04-11T07:56:26.737Z,5.15
2024-04-11T07:58:57.257Z,3.53
2024-04-11T08:01:38.055Z,4.93
2024-04-11T08:04:08.717Z,2.63
2024-04-11T08:06:35.731Z,4.28
2024-04-11T08:09:07.793Z,2.63
2024-04-11T08:11:37.291Z,4.38
2024-04-11T08:14:07.541Z,4.85
2024-04-11T08:16:34.911Z,2.70
2024-04-11T08:19:10.509Z,2.85
2024-04-11T08:21:37.339Z,5.00
2024-04-11T08:24:04.386Z,3.58
2024-04-11T08:26:33.969Z,2.97
2024-04-11T08:29:01.451Z,2.72
2024-04-11T08:31:31.462Z,2.28
2024-04-11T08:34:01.879Z,1.92
2024-04-11T08:36:30.257Z,2.47
2024-04-11T08:38:59.460Z,2.15
2024-04-11T08:41:27.003Z,3.03
2024-04-11T08:43:53.801Z,1.10
2024-04-11T08:46:20.674Z,1.98
2024-04-11T08:48:47.833Z,3.67
2024-04-11T08:51:22.900Z,3.00
2024-04-11T08:54:02.774Z,1.38
2024-04-11T08:56:33.816Z,2.47
2024-04-11T08:59:00.641Z,2.03
2024-04-11T09:01:27.673Z,2.42
2024-04-11T09:03:55.161Z,2.58
2024-04-11T09:06:26.191Z,1.98
2024-04-11T09:08:58.700Z,2.08
2024-04-11T09:11:28.208Z,2.65
2024-04-11T09:13:59.678Z,0.90
2024-04-11T09:16:30.025Z,3.63
2024-04-11T09:19:11.070Z,2.13
2024-04-11T09:21:46.376Z,3.65
2024-04-11T09:24:20.149Z,3.22
2024-04-11T09:26:50.777Z,1.65
2024-04-11T09:29:23.060Z,1.80
2024-04-11T09:31:53.163Z,1.60
2024-04-11T09:34:22.314Z,1.40
2024-04-11T09:36:53.398Z,2.45
2024-04-11T09:39:47.599Z,2.30
2024-04-11T09:42:20.436Z,3.08
2024-04-11T09:44:50.418Z,1.67
2024-04-11T09:47:28.408Z,0.98
2024-04-11T09:50:06.955Z,2.22
2024-04-11T09:52:41.372Z,2.47
2024-04-11T09:55:11.455Z,2.90
2024-04-11T09:57:45.854Z,2.80
2024-04-11T10:00:24.365Z,1.40
2024-04-11T10:02:54.955Z,3.28
2024-04-11T10:05:26.889Z,1.55
2024-04-11T10:08:02.598Z,2.45
2024-04-11T10:10:32.710Z,1.63
2024-04-11T10:13:05.407Z,3.33
2024-04-11T10:15:35.765Z,2.38
2024-04-11T10:18:13.025Z,2.35
2024-04-11T10:21:03.261Z,4.07
2024-04-11T10:23:38.502Z,2.58
2024-04-11T10:26:15.861Z,2.03
2024-04-11T10:28:42.909Z,1.73
2024-04-11T10:33:48.582Z,2.95
2024-04-11T10:36:18.703Z,1.95
2024-04-11T10:38:46.814Z,2.67
2024-04-11T10:41:17.737Z,3.40
2024-04-11T10:43:46.754Z,2.55
2024-04-11T10:46:14.127Z,1.33
2024-04-11T10:48:46.240Z,1.77
2024-04-11T10:51:15.171Z,1.80
2024-04-11T10:53:48.581Z,1.20
2024-04-11T10:56:23.653Z,2.92
2024-04-11T10:58:57.224Z,3.08
2024-04-11T11:01:27.723Z,2.45
2024-04-11T11:03:59.400Z,2.38
2024-04-11T11:06:30.615Z,3.33
2024-04-11T11:09:12.143Z,4.05
2024-04-11T11:11:41.351Z,1.58
2024-04-11T11:14:15.593Z,5.68
2024-04-11T11:16:48.414Z,4.47
2024-04-11T11:19:17.522Z,1.65
2024-04-11T11:21:51.815Z,2.67
2024-04-11T11:24:25.304Z,1.95
2024-04-11T11:27:06.624Z,3.47
2024-04-11T11:29:33.291Z,2.10
2024-04-11T11:32:05.924Z,2.97
2024-04-11T11:34:37.239Z,2.45
2024-04-11T11:37:04.714Z,3.35
2024-04-11T11:39:37.272Z,2.65
2024-04-11T11:42:10.633Z,2.45
2024-04-11T11:45:06.455Z,2.17
2024-04-11T11:47:35.911Z,2.85
2024-04-11T11:50:10.689Z,2.05
2024-04-11T11:52:46.804Z,1.63
2024-04-11T11:55:18.251Z,3.22
2024-04-11T11:57:58.488Z,2.13
2024-04-11T12:00:33.679Z,2.45
2024-04-11T12:03:20.820Z,5.03
2024-04-11T12:05:54.715Z,2.67
2024-04-11T12:08:21.384Z,3.80
2024-04-11T12:11:14.000Z,3.45
2024-04-11T12:13:44.236Z,1.33
2024-04-11T12:16:17.197Z,2.20
2024-04-11T12:18:45.188Z,1.40
2024-04-11T12:21:15.217Z,2.05
2024-04-11T12:23:44.819Z,2.40
2024-04-11T12:26:13.424Z,2.05
2024-04-11T12:28:46.636Z,3.70
2024-04-11T12:31:23.347Z,3.38
2024-04-11T12:36:37.486Z,2.20
2024-04-11T12:41:57.828Z,2.72
2024-04-11T12:44:32.200Z,2.53
2024-04-11T12:47:14.872Z,3.10
2024-04-11T12:49:50.765Z,1.33
2024-04-11T12:52:25.495Z,3.72
2024-04-11T12:55:00.411Z,2.35
2024-04-11T12:57:31.396Z,5.10
2024-04-11T13:00:09.164Z,3.00
2024-04-11T13:02:41.159Z,2.45
2024-04-11T13:05:14.991Z,3.22
2024-04-11T13:07:47.154Z,1.30
2024-04-11T13:10:13.834Z,3.00
2024-04-11T13:12:45.109Z,3.10
2024-04-11T13:15:20.610Z,4.35
2024-04-11T13:17:54.266Z,2.33
2024-04-11T13:20:29.254Z,4.78
2024-04-11T13:23:10.850Z,1.65
2024-04-11T13:25:43.988Z,3.10
2024-04-11T13:28:14.185Z,2.45
2024-04-11T13:30:43.824Z,2.45
2024-04-11T13:33:17.362Z,2.88
2024-04-11T13:35:52.371Z,5.97
2024-04-11T13:38:23.630Z,2.88
2024-04-11T13:41:12.865Z,2.35
2024-04-11T13:43:43.770Z,3.47
2024-04-11T13:46:14.009Z,2.97
2024-04-11T13:48:51.732Z,3.53
2024-04-11T13:51:20.329Z,4.15
2024-04-11T13:54:03.413Z,1.92
2024-04-11T13:56:39.404Z,4.55
2024-04-11T13:59:10.204Z,1.63
2024-04-11T14:01:44.271Z,2.42
2024-04-11T14:04:18.010Z,3.55
2024-04-11T14:06:51.564Z,4.20
2024-04-11T14:09:20.092Z,1.95
2024-04-11T14:11:53.597Z,3.35
2024-04-11T14:14:23.557Z,2.03
2024-04-11T14:16:54.239Z,3.10
2024-04-11T14:19:36.985Z,2.75
2024-04-11T14:22:30.822Z,2.47
2024-04-11T14:25:10.366Z,3.50
2024-04-11T14:27:40.126Z,2.17
2024-04-11T14:30:07.643Z,2.10
2024-04-11T14:32:52.785Z,2.28
2024-04-11T14:35:43.797Z,2.50
2024-04-11T14:38:20.790Z,1.85
2024-04-11T14:40:55.888Z,1.95
2024-04-11T14:43:22.851Z,4.38
2024-04-11T14:45:49.402Z,3.97
2024-04-11T14:48:35.120Z,3.38
2024-04-11T14:51:09.582Z,3.42
2024-04-11T14:53:39.883Z,6.03
2024-04-11T14:56:19.764Z,2.42
2024-04-11T14:58:49.534Z,2.78
2024-04-11T15:01:31.424Z,2.75
2024-04-11T15:04:06.631Z,3.22
2024-04-11T15:06:37.391Z,4.38
2024-04-11T15:09:24.211Z,2.47
2024-04-11T15:12:00.463Z,4.07
2024-04-11T15:14:34.071Z,4.68
2024-04-11T15:17:20.218Z,2.75
2024-04-11T15:19:53.190Z,2.58
2024-04-11T15:22:26.217Z,2.22
2024-04-11T15:24:54.495Z,2.25
2024-04-11T15:27:30.464Z,1.92
2024-04-11T15:30:06.591Z,2.97
2024-04-11T15:32:38.221Z,2.70
2024-04-11T15:35:10.716Z,3.40
2024-04-11T15:38:18.005Z,4.05
2024-04-11T15:40:51.980Z,4.53
2024-04-11T15:43:28.650Z,2.42
2024-04-11T15:46:08.220Z,2.55
2024-04-11T15:48:37.883Z,3.22
2024-04-11T15:51:08.678Z,3.15
2024-04-11T15:53:38.264Z,2.92
2024-04-11T15:56:14.736Z,4.15
2024-04-11T15:58:54.150Z,2.10
2024-04-11T16:01:29.436Z,2.92
2024-04-11T16:03:57.210Z,3.85
2024-04-11T16:06:33.116Z,3.28
2024-04-11T16:08:59.864Z,2.97
2024-04-11T16:13:57.578Z,5.50
2024-04-11T16:16:30.638Z,4.50
2024-04-11T16:18:58.221Z,2.85
2024-04-11T16:21:25.198Z,3.63
2024-04-11T16:23:58.312Z,2.28
2024-04-11T16:26:30.240Z,1.60
2024-04-11T16:29:07.943Z,3.90
2024-04-11T16:31:39.467Z,1.98
2024-04-11T16:34:11.596Z,3.45
2024-04-11T16:36:48.619Z,3.58
2024-04-11T16:39:31.277Z,3.90
2024-04-11T16:42:15.890Z,1.20
2024-04-11T16:47:22.413Z,1.52
2024-04-11T16:49:54.193Z,3.33
2024-04-11T16:52:25.880Z,2.75
2024-04-11T16:55:01.858Z,3.53
2024-04-11T16:57:39.709Z,3.00
2024-04-11T17:00:28.131Z,2.03
2024-04-11T17:02:59.648Z,2.40
2024-04-11T17:05:29.721Z,2.22
2024-04-11T17:07:58.942Z,3.00
2024-04-11T17:10:35.019Z,1.80
2024-04-11T17:13:02.621Z,2.72
2024-04-11T17:15:32.177Z,3.95
2024-04-11T17:18:07.855Z,4.05
2024-04-11T17:20:50.209Z,4.18
2024-04-11T17:23:23.025Z,2.88
2024-04-11T17:25:49.996Z,4.85
2024-04-11T17:28:37.828Z,3.25
2024-04-11T17:31:04.624Z,5.50
2024-04-11T17:33:35.174Z,9.25
2024-04-11T17:36:25.200Z,8.63
2024-04-11T17:39:06.167Z,5.70
2024-04-11T17:41:42.842Z,9.07
2024-04-11T17:44:15.869Z,3.42
2024-04-11T17:46:56.895Z,5.55
2024-04-11T17:49:40.361Z,5.10
2024-04-11T17:52:25.095Z,11.02
2024-04-11T17:54:52.393Z,7.50
2024-04-11T17:57:19.131Z,5.07
2024-04-11T17:59:49.465Z,3.78
2024-04-11T18:02:22.839Z,2.70
2024-04-11T18:04:52.863Z,4.13
2024-04-11T18:07:26.071Z,2.60
2024-04-11T18:09:54.498Z,2.60
2024-04-11T18:12:22.985Z,4.55
2024-04-11T18:14:49.892Z,4.10
2024-04-11T18:17:16.522Z,3.13
2024-04-11T18:19:46.545Z,3.08
2024-04-11T18:22:13.679Z,2.25
2024-04-11T18:27:13.391Z,2.72
2024-04-11T18:29:45.457Z,11.13
2024-04-11T18:32:15.124Z,5.72
2024-04-11T18:34:47.049Z,3.28
2024-04-11T18:37:16.690Z,4.88
2024-04-11T18:40:01.727Z,2.20
2024-04-11T18:42:45.615Z,2.95
2024-04-11T18:45:31.054Z,4.40
2024-04-11T18:48:00.306Z,2.33
2024-04-11T18:50:34.758Z,3.78
2024-04-11T18:53:04.191Z,5.43
2024-04-11T18:55:44.998Z,3.20
2024-04-11T18:58:15.653Z,4.75
2024-04-11T19:00:45.251Z,7.38
2024-04-11T19:03:19.254Z,12.18
2024-04-11T19:05:53.255Z,5.80
2024-04-11T19:08:26.681Z,6.63
2024-04-11T19:10:55.189Z,4.93
2024-04-11T19:13:25.844Z,3.47
2024-04-11T19:15:56.729Z,9.98
2024-04-11T19:18:26.619Z,8.02
2024-04-11T19:20:57.696Z,8.00
2024-04-11T19:23:37.344Z,5.32
2024-04-11T19:26:15.556Z,5.13
2024-04-11T19:28:44.742Z,1.92
2024-04-11T19:31:13.273Z,3.72
2024-04-11T19:33:45.819Z,3.25
2024-04-11T19:36:16.303Z,3.35
2024-04-11T19:38:44.773Z,5.63
2024-04-11T19:41:11.728Z,5.20
2024-04-11T19:43:38.377Z,3.78
2024-04-11T19:46:09.281Z,5.40
2024-04-11T19:48:36.356Z,4.60
2024-04-11T19:51:15.163Z,3.60
2024-04-11T19:53:43.444Z,3.97
2024-04-11T19:56:19.770Z,4.95
2024-04-11T19:59:02.086Z,8.73
2024-04-11T20:01:52.638Z,5.13
2024-04-11T20:04:21.981Z,4.65
2024-04-11T20:06:50.433Z,6.38
2024-04-11T20:09:17.693Z,13.38
2024-04-11T20:11:50.812Z,8.77
2024-04-11T20:14:29.756Z,2.40
2024-04-11T20:16:59.690Z,5.15
2024-04-11T20:19:26.412Z,5.22
2024-04-11T20:21:55.785Z,4.32
2024-04-11T20:24:28.247Z,3.40
2024-04-11T20:26:55.047Z,3.08
2024-04-11T20:31:54.026Z,2.47
2024-04-11T20:34:21.849Z,3.25
2024-04-11T20:36:51.064Z,2.60
2024-04-11T20:39:36.241Z,2.88
2024-04-11T20:42:17.804Z,3.13
2024-04-11T20:44:55.372Z,2.13
2024-04-11T20:47:22.483Z,2.88
2024-04-11T20:50:12.154Z,1.83
2024-04-11T20:52:57.448Z,4.72
2024-04-11T20:55:42.398Z,3.80
2024-04-11T20:58:28.568Z,2.33
2024-04-11T21:01:13.882Z,2.15
2024-04-11T21:04:01.979Z,3.17
2024-04-11T21:06:47.303Z,2.10
2024-04-11T21:09:32.728Z,2.60
2024-04-11T21:12:17.950Z,4.35
2024-04-11T21:15:03.435Z,3.53
2024-04-11T21:17:48.724Z,2.50
2024-04-11T21:20:34.139Z,3.40
2024-04-11T21:23:19.377Z,3.05
2024-04-11T21:26:07.299Z,2.45
2024-04-11T21:28:52.244Z,2.80
2024-04-11T21:31:37.261Z,3.50
2024-04-11T21:36:36.451Z,5.03
2024-04-11T21:39:04.913Z,1.20
2024-04-11T21:41:38.023Z,3.70
2024-04-11T21:44:08.301Z,3.58
2024-04-11T21:46:41.998Z,3.15
2024-04-11T21:49:15.902Z,2.58
2024-04-11T21:51:45.530Z,2.47
2024-04-11T21:54:12.146Z,3.15
2024-04-11T21:56:42.725Z,2.65
2024-04-11T21:59:11.399Z,2.72
2024-04-11T22:01:52.343Z,3.47
2024-04-11T22:04:34.629Z,2.03
2024-04-11T22:07:04.483Z,2.20
2024-04-11T22:09:42.148Z,2.22
2024-04-11T22:12:12.184Z,3.25
2024-04-11T22:14:45.513Z,4.32
2024-04-11T22:17:22.284Z,3.63
2024-04-11T22:20:01.454Z,1.75
2024-04-11T22:22:32.716Z,2.22
2024-04-11T22:25:01.809Z,2.83
2024-04-11T22:27:30.200Z,3.25
2024-04-11T22:29:59.229Z,3.75
2024-04-11T22:32:28.512Z,2.65
2024-04-11T22:34:58.588Z,5.13
2024-04-11T22:37:25.327Z,3.42
2024-04-11T22:39:53.364Z,3.72
2024-04-11T22:42:23.692Z,3.63
2024-04-11T22:44:51.244Z,3.72
2024-04-11T22:47:18.447Z,4.47
2024-04-11T22:49:48.264Z,5.43
2024-04-11T22:52:33.261Z,5.28
2024-04-11T22:55:07.711Z,4.82
2024-04-11T22:57:38.004Z,3.42
2024-04-11T23:00:28.560Z,4.20
2024-04-11T23:03:01.360Z,5.43
2024-04-11T23:08:00.819Z,4.88
2024-04-11T23:10:41.437Z,4.90
2024-04-11T23:13:10.928Z,5.15
2024-04-11T23:15:54.448Z,9.63
2024-04-11T23:18:23.402Z,3.38
2024-04-11T23:21:03.824Z,4.25
2024-04-11T23:23:38.865Z,4.93
2024-04-11T23:26:06.371Z,3.00
2024-04-11T23:28:32.974Z,3.38
2024-04-11T23:31:06.085Z,3.65
2024-04-11T23:33:40.197Z,5.03
2024-04-11T23:36:08.135Z,2.78
2024-04-11T23:38:36.826Z,8.32
2024-04-11T23:41:07.377Z,9.80
2024-04-11T23:43:48.071Z,10.32
2024-04-11T23:46:28.144Z,8.82
2024-04-11T23:48:57.557Z,6.28
2024-04-11T23:51:29.787Z,6.32
2024-04-11T23:53:57.933Z,4.20
2024-04-11T23:56:45.556Z,4.13
2024-04-11T23:59:14.729Z,5.05
